Time;durP1;ratioP1;P1;durP2;ratioP2;P2;SDS_P1;SDS_P2;PMS_P1;PMS_P2;Temp;Humidity;BMP_temperature;BMP_pressure;BME280_temperature;BME280_humidity;BME280_pressure;Samples;Min_cycle;Max_cycle;Signal;HPM_P1;HPM_P2
2023/06/16 00:00:51;;;;;;;18.67;14.40;;;15.40;99.90;;;;;;2101999;28;20021;-72
2023/06/16 00:01:53;;;;;;;15.60;13.90;;;15.40;99.90;;;;;;2099481;28;20602;-72
2023/06/16 00:02:57;;;;;;;18.42;14.35;;;15.40;99.90;;;;;;2097534;28;20047;-71
2023/06/16 00:03:58;;;;;;;20.10;14.90;;;15.40;99.90;;;;;;2098637;28;20035;-71
2023/06/16 00:05:01;;;;;;;19.65;14.40;;;15.40;99.90;;;;;;2098495;28;20135;-73
2023/06/16 00:06:37;;;;;;;20.85;14.95;;;15.40;99.90;;;;;;2101976;28;20024;-72
2023/06/16 00:07:31;;;;;;;15.95;13.25;;;15.40;99.90;;;;;;2099147;28;20097;-72
2023/06/16 00:08:33;;;;;;;17.80;14.05;;;15.40;99.90;;;;;;2094234;28;20036;-71
2023/06/16 00:09:33;;;;;;;18.90;13.88;;;15.40;99.90;;;;;;2099332;28;20176;-72
2023/06/16 00:10:34;;;;;;;17.42;13.88;;;15.40;99.90;;;;;;2098058;28;20059;-71
2023/06/16 00:11:34;;;;;;;18.65;13.90;;;15.40;99.90;;;;;;2102196;28;20043;-72
2023/06/16 00:12:36;;;;;;;15.75;13.38;;;15.40;99.90;;;;;;2092679;28;20511;-72
2023/06/16 00:13:37;;;;;;;17.88;13.93;;;15.40;99.90;;;;;;2100009;28;20072;-72
2023/06/16 00:14:37;;;;;;;17.00;13.70;;;15.40;99.90;;;;;;2092073;28;20559;-71
2023/06/16 00:15:38;;;;;;;16.08;14.10;;;15.30;99.90;;;;;;2099474;28;20055;-72
2023/06/16 00:16:39;;;;;;;16.85;13.82;;;15.30;99.90;;;;;;2102760;28;20032;-72
2023/06/16 00:17:46;;;;;;;17.30;13.60;;;15.30;99.90;;;;;;2098466;28;20044;-73
2023/06/16 00:18:53;;;;;;;16.33;13.18;;;15.30;99.90;;;;;;2098188;28;20666;-71
2023/06/16 00:19:57;;;;;;;17.13;13.90;;;15.30;99.90;;;;;;2098259;28;20481;-71
2023/06/16 00:21:01;;;;;;;19.17;13.85;;;15.30;99.90;;;;;;2097474;28;20176;-72
2023/06/16 00:22:03;;;;;;;19.05;14.30;;;15.30;99.90;;;;;;2088774;28;20056;-72
2023/06/16 00:23:06;;;;;;;19.13;14.20;;;15.30;99.90;;;;;;2096543;28;20078;-72
2023/06/16 00:24:10;;;;;;;16.55;13.57;;;15.30;99.90;;;;;;2105108;28;20028;-72
2023/06/16 00:25:11;;;;;;;18.50;13.38;;;15.30;99.90;;;;;;2100186;28;20086;-72
2023/06/16 00:26:12;;;;;;;16.73;13.23;;;15.30;99.90;;;;;;2100199;28;20123;-72
2023/06/16 00:27:17;;;;;;;17.67;13.60;;;15.30;99.90;;;;;;2084418;28;20025;-71
2023/06/16 00:28:18;;;;;;;19.08;12.95;;;15.30;99.90;;;;;;2091812;28;20568;-71
2023/06/16 00:29:18;;;;;;;18.85;13.20;;;15.30;99.90;;;;;;2091888;28;20031;-72
2023/06/16 00:30:19;;;;;;;16.00;13.15;;;15.30;99.90;;;;;;2091650;28;20434;-72
2023/06/16 00:31:20;;;;;;;16.75;12.88;;;15.30;99.90;;;;;;2098393;28;20160;-72
2023/06/16 00:32:21;;;;;;;17.60;13.23;;;15.30;99.90;;;;;;2099030;28;20130;-71
2023/06/16 00:33:22;;;;;;;17.65;12.88;;;15.30;99.90;;;;;;2097212;28;20270;-72
2023/06/16 00:34:22;;;;;;;16.45;12.43;;;15.20;99.90;;;;;;2094034;28;20086;-71
2023/06/16 00:35:23;;;;;;;17.40;13.02;;;15.20;99.90;;;;;;2096617;28;20098;-71
2023/06/16 00:36:23;;;;;;;17.77;12.85;;;15.20;99.90;;;;;;2100773;28;20025;-72
2023/06/16 00:37:25;;;;;;;17.02;12.95;;;15.20;99.90;;;;;;2094033;28;20027;-72
2023/06/16 00:38:27;;;;;;;14.75;12.43;;;15.20;99.90;;;;;;2100715;28;20035;-72
2023/06/16 00:39:27;;;;;;;14.32;11.98;;;15.20;99.90;;;;;;2101390;28;20505;-72
2023/06/16 00:40:28;;;;;;;16.02;12.00;;;15.20;99.90;;;;;;2097404;28;20086;-71
2023/06/16 00:41:29;;;;;;;16.38;12.77;;;15.20;99.90;;;;;;2089094;28;20057;-72
2023/06/16 00:42:30;;;;;;;17.42;12.60;;;15.20;99.90;;;;;;2097226;28;20037;-71
2023/06/16 00:43:33;;;;;;;14.50;12.00;;;15.20;99.90;;;;;;2100946;28;20024;-71
2023/06/16 00:44:33;;;;;;;13.68;12.10;;;15.20;99.90;;;;;;2093865;28;20458;-72
2023/06/16 00:45:35;;;;;;;16.88;11.80;;;15.20;99.90;;;;;;2101345;28;20429;-72
2023/06/16 00:46:36;;;;;;;13.88;11.85;;;15.20;99.90;;;;;;2100921;28;20108;-71
2023/06/16 00:47:37;;;;;;;15.27;11.32;;;15.20;99.90;;;;;;2097934;28;20479;-72
2023/06/16 00:48:37;;;;;;;15.40;11.98;;;15.10;99.90;;;;;;2102757;28;20115;-71
2023/06/16 00:49:39;;;;;;;14.93;12.30;;;15.20;99.90;;;;;;2097395;28;20028;-70
2023/06/16 00:50:40;;;;;;;14.88;11.30;;;15.10;99.90;;;;;;2097472;28;20040;-71
2023/06/16 00:51:41;;;;;;;13.73;11.68;;;15.10;99.90;;;;;;2100984;28;20032;-72
2023/06/16 00:52:42;;;;;;;14.40;11.77;;;15.10;99.90;;;;;;2100223;28;20032;-72
2023/06/16 00:53:43;;;;;;;13.75;11.10;;;15.10;99.90;;;;;;2092437;28;20032;-71
2023/06/16 00:54:44;;;;;;;13.18;11.50;;;15.10;99.90;;;;;;2099863;28;20104;-71
2023/06/16 00:55:46;;;;;;;13.88;11.20;;;15.10;99.90;;;;;;2099032;28;20028;-71
2023/06/16 00:56:47;;;;;;;13.40;11.00;;;15.10;99.90;;;;;;2100116;28;20039;-71
2023/06/16 00:57:52;;;;;;;15.48;11.38;;;15.00;99.90;;;;;;2101020;28;20185;-71
2023/06/16 00:58:53;;;;;;;13.77;11.10;;;15.10;99.90;;;;;;2097975;28;20023;-72
2023/06/16 00:59:54;;;;;;;13.18;11.07;;;15.00;99.90;;;;;;2098143;28;20035;-71
2023/06/16 01:00:55;;;;;;;14.80;11.35;;;15.00;99.90;;;;;;2097841;28;20029;-72
2023/06/16 01:01:56;;;;;;;14.43;10.93;;;15.00;99.90;;;;;;2101257;28;20212;-72
2023/06/16 01:02:56;;;;;;;12.27;10.73;;;15.00;99.90;;;;;;2100139;28;20033;-71
2023/06/16 01:03:57;;;;;;;13.00;11.07;;;15.00;99.90;;;;;;2100141;28;20118;-71
2023/06/16 01:04:58;;;;;;;12.35;11.05;;;15.00;99.90;;;;;;2100833;28;20069;-73
2023/06/16 01:06:13;;;;;;;12.15;10.85;;;15.00;99.90;;;;;;2101899;28;20550;-74
2023/06/16 01:07:28;;;;;;;13.10;11.43;;;15.00;99.90;;;;;;2093641;28;20058;-72
2023/06/16 01:08:38;;;;;;;15.20;11.85;;;15.00;99.90;;;;;;2098193;28;20019;-72
2023/06/16 01:09:46;;;;;;;13.40;11.07;;;15.00;99.90;;;;;;2100065;28;20035;-71
2023/06/16 01:10:59;;;;;;;13.40;11.82;;;15.10;99.90;;;;;;2092375;28;20044;-71
2023/06/16 01:12:08;;;;;;;16.40;11.70;;;15.10;99.90;;;;;;2100617;28;20462;-71
2023/06/16 01:13:24;;;;;;;14.15;10.98;;;15.20;99.90;;;;;;2103449;28;20216;-71
2023/06/16 01:14:51;;;;;;;15.73;11.70;;;15.20;99.90;;;;;;2093437;28;20029;-72
2023/06/16 01:15:53;;;;;;;15.45;11.50;;;15.20;99.90;;;;;;2083017;28;20548;-72
2023/06/16 01:16:57;;;;;;;13.80;11.15;;;15.30;99.90;;;;;;2099691;28;20298;-72
2023/06/16 01:18:00;;;;;;;14.32;11.48;;;15.30;99.90;;;;;;2096389;28;20039;-72
2023/06/16 01:19:14;;;;;;;12.43;11.13;;;15.30;99.90;;;;;;2094028;28;20112;-71
2023/06/16 01:20:39;;;;;;;13.80;11.23;;;15.30;99.90;;;;;;2085888;28;20033;-71
2023/06/16 01:22:06;;;;;;;12.25;10.70;;;15.40;99.90;;;;;;2101066;28;20050;-72
2023/06/16 01:23:39;;;;;;;15.02;11.38;;;15.40;99.90;;;;;;2102100;28;20030;-72
2023/06/16 01:24:42;;;;;;;13.85;11.05;;;15.40;99.90;;;;;;2102499;28;20028;-77
2023/06/16 01:25:44;;;;;;;14.02;11.40;;;15.40;99.90;;;;;;2101625;28;20031;-73
2023/06/16 01:26:52;;;;;;;14.68;11.50;;;15.40;99.90;;;;;;2101485;28;20032;-72
2023/06/16 01:27:54;;;;;;;14.93;10.98;;;15.40;99.90;;;;;;2102341;28;20039;-72
2023/06/16 01:28:57;;;;;;;13.75;10.98;;;15.40;99.90;;;;;;2101453;28;20452;-72
2023/06/16 01:30:00;;;;;;;11.40;10.27;;;15.40;99.90;;;;;;2102752;28;20039;-72
2023/06/16 01:31:02;;;;;;;12.15;10.43;;;15.40;99.90;;;;;;2101535;28;20033;-72
2023/06/16 01:32:05;;;;;;;14.23;10.43;;;15.50;99.90;;;;;;2099556;28;20071;-72
2023/06/16 01:33:08;;;;;;;13.85;11.00;;;15.50;99.90;;;;;;2097398;28;20534;-72
2023/06/16 01:34:11;;;;;;;12.63;10.43;;;15.60;99.90;;;;;;2087606;28;20507;-71
2023/06/16 01:35:12;;;;;;;15.15;10.90;;;15.60;99.90;;;;;;2093900;28;20047;-72
2023/06/16 01:36:15;;;;;;;12.50;10.77;;;15.60;99.90;;;;;;2101529;28;20240;-71
2023/06/16 01:37:18;;;;;;;14.90;10.50;;;15.50;99.90;;;;;;2092689;28;20396;-71
2023/06/16 01:38:21;;;;;;;13.43;10.63;;;15.60;99.90;;;;;;2101191;28;20486;-72
2023/06/16 01:39:23;;;;;;;14.68;10.60;;;15.60;99.90;;;;;;2101267;28;20277;-72
2023/06/16 01:40:25;;;;;;;12.93;10.65;;;15.60;99.90;;;;;;2101474;28;20078;-72
2023/06/16 01:41:27;;;;;;;14.18;10.90;;;15.60;99.90;;;;;;2093631;28;20066;-71
2023/06/16 01:42:28;;;;;;;15.00;10.15;;;15.60;99.90;;;;;;2085498;28;20033;-72
2023/06/16 01:43:30;;;;;;;11.60;10.23;;;15.60;99.90;;;;;;2101641;28;20086;-70
2023/06/16 01:44:34;;;;;;;12.80;10.60;;;15.60;99.90;;;;;;2102880;28;20425;-69
2023/06/16 01:45:35;;;;;;;15.27;10.35;;;15.50;99.90;;;;;;2098738;28;20036;-69
2023/06/16 01:46:36;;;;;;;12.88;10.20;;;15.50;99.90;;;;;;2105459;28;20123;-69
2023/06/16 01:47:38;;;;;;;12.10;10.05;;;15.50;99.90;;;;;;2098077;28;20024;-69
2023/06/16 01:48:39;;;;;;;12.55;10.35;;;15.50;99.90;;;;;;2102103;28;20028;-69
2023/06/16 01:49:39;;;;;;;15.45;10.82;;;15.50;99.90;;;;;;2094244;28;20040;-69
2023/06/16 01:50:41;;;;;;;14.82;11.05;;;15.50;99.90;;;;;;2097349;28;20125;-68
2023/06/16 01:51:44;;;;;;;13.27;10.00;;;15.50;99.90;;;;;;2103466;28;20437;-68
2023/06/16 01:52:44;;;;;;;12.05;10.30;;;15.50;99.90;;;;;;2098840;28;20031;-69
2023/06/16 01:53:46;;;;;;;13.57;10.07;;;15.50;99.90;;;;;;2098967;28;20481;-69
2023/06/16 01:54:47;;;;;;;13.48;9.77;;;15.50;99.90;;;;;;2099551;28;20175;-70
2023/06/16 01:55:50;;;;;;;11.00;9.77;;;15.50;99.90;;;;;;2099736;28;20407;-69
2023/06/16 01:56:51;;;;;;;12.02;10.05;;;15.50;99.90;;;;;;2092753;28;20094;-69
2023/06/16 01:57:53;;;;;;;12.18;9.90;;;15.50;99.90;;;;;;2088786;28;20040;-69
2023/06/16 01:58:54;;;;;;;11.15;9.48;;;15.50;99.90;;;;;;2085042;28;20512;-69
2023/06/16 02:00:08;;;;;;;12.40;10.05;;;15.40;99.90;;;;;;2101493;28;20043;-70
2023/06/16 02:01:29;;;;;;;12.48;10.10;;;15.30;99.90;;;;;;2101919;28;20441;-69
2023/06/16 02:02:32;;;;;;;11.63;9.88;;;15.40;99.90;;;;;;2101293;28;20341;-69
2023/06/16 02:03:52;;;;;;;13.63;9.77;;;15.30;99.90;;;;;;2100454;28;20147;-69
2023/06/16 02:04:54;;;;;;;13.02;9.95;;;15.30;99.90;;;;;;2092564;28;20112;-70
2023/06/16 02:05:59;;;;;;;11.38;9.73;;;15.20;99.90;;;;;;2098027;28;20077;-69
2023/06/16 02:07:07;;;;;;;13.15;9.90;;;15.30;99.90;;;;;;2097386;28;20479;-70
2023/06/16 02:08:08;;;;;;;12.15;9.88;;;15.30;99.90;;;;;;2089503;28;20115;-70
2023/06/16 02:09:12;;;;;;;11.18;9.80;;;15.20;99.90;;;;;;2093422;28;20494;-69
2023/06/16 02:10:13;;;;;;;11.75;9.95;;;15.20;99.90;;;;;;2100052;28;20070;-69
2023/06/16 02:11:15;;;;;;;11.95;10.07;;;15.10;99.90;;;;;;2096256;28;20487;-70
2023/06/16 02:12:17;;;;;;;11.52;10.00;;;15.10;99.90;;;;;;2102286;28;20422;-70
2023/06/16 02:13:18;;;;;;;11.88;10.00;;;15.10;99.90;;;;;;2099296;28;20107;-69
2023/06/16 02:14:20;;;;;;;11.25;10.05;;;15.10;99.90;;;;;;2091171;28;20586;-69
2023/06/16 02:15:21;;;;;;;13.93;10.57;;;15.00;99.90;;;;;;2097633;28;20050;-69
2023/06/16 02:16:24;;;;;;;12.48;9.85;;;15.00;99.90;;;;;;2099130;28;20054;-69
2023/06/16 02:17:28;;;;;;;13.13;10.15;;;15.00;99.90;;;;;;2095113;28;20067;-69
2023/06/16 02:18:32;;;;;;;12.23;10.40;;;14.90;99.90;;;;;;2101756;28;20028;-70
2023/06/16 02:19:33;;;;;;;12.90;10.10;;;14.90;99.90;;;;;;2096686;28;20526;-69
2023/06/16 02:20:34;;;;;;;12.70;9.95;;;14.90;99.90;;;;;;2102294;28;20504;-69
2023/06/16 02:21:34;;;;;;;13.70;10.27;;;14.80;99.90;;;;;;2101239;28;20030;-70
2023/06/16 02:22:35;;;;;;;14.55;10.48;;;14.80;99.90;;;;;;2100933;28;20490;-70
2023/06/16 02:23:35;;;;;;;13.20;10.23;;;14.80;99.90;;;;;;2101745;28;20024;-70
2023/06/16 02:24:36;;;;;;;14.15;10.75;;;14.80;99.90;;;;;;2091939;28;20044;-70
2023/06/16 02:25:37;;;;;;;14.70;10.68;;;14.80;99.90;;;;;;2096618;28;20062;-70
2023/06/16 02:26:37;;;;;;;12.52;10.60;;;14.80;99.90;;;;;;2098786;28;20060;-69
2023/06/16 02:27:38;;;;;;;14.77;10.90;;;14.80;99.90;;;;;;2099302;28;20108;-70
2023/06/16 02:28:38;;;;;;;14.80;10.90;;;14.80;99.90;;;;;;2099022;28;20028;-70
2023/06/16 02:29:40;;;;;;;16.40;11.05;;;14.80;99.90;;;;;;2098691;28;20050;-70
2023/06/16 02:30:41;;;;;;;14.68;11.18;;;14.80;99.90;;;;;;2092133;28;20554;-70
2023/06/16 02:31:46;;;;;;;16.52;11.10;;;14.80;99.90;;;;;;2101294;28;20035;-70
2023/06/16 02:32:48;;;;;;;14.70;10.38;;;14.70;99.90;;;;;;2101053;28;20448;-70
2023/06/16 02:33:51;;;;;;;15.45;11.18;;;14.70;99.90;;;;;;2099653;28;20399;-70
2023/06/16 02:34:52;;;;;;;13.93;10.40;;;14.70;99.90;;;;;;2092866;28;20024;-70
2023/06/16 02:35:53;;;;;;;14.32;10.73;;;14.70;99.90;;;;;;2090902;28;20020;-69
2023/06/16 02:36:54;;;;;;;13.02;10.48;;;14.70;99.90;;;;;;2099197;28;20016;-70
2023/06/16 02:37:55;;;;;;;13.25;10.73;;;14.70;99.90;;;;;;2099415;28;20180;-70
2023/06/16 02:38:56;;;;;;;12.77;10.27;;;14.70;99.90;;;;;;2094628;28;20074;-70
2023/06/16 02:39:57;;;;;;;14.27;10.98;;;14.70;99.90;;;;;;2096916;28;20222;-70
2023/06/16 02:40:58;;;;;;;13.55;10.65;;;14.70;99.90;;;;;;2101282;28;20036;-70
2023/06/16 02:41:59;;;;;;;14.38;10.40;;;14.70;99.90;;;;;;2092637;28;20107;-70
2023/06/16 02:43:00;;;;;;;13.18;10.88;;;14.70;99.90;;;;;;2092390;28;20514;-68
2023/06/16 02:44:00;;;;;;;14.35;10.77;;;14.70;99.90;;;;;;2089491;28;20044;-70
2023/06/16 02:45:02;;;;;;;12.50;10.13;;;14.70;99.90;;;;;;2094451;28;20024;-69
2023/06/16 02:46:03;;;;;;;13.82;10.77;;;14.70;99.90;;;;;;2098522;28;20102;-69
2023/06/16 02:47:04;;;;;;;12.43;9.77;;;14.70;99.90;;;;;;2099192;28;20363;-69
2023/06/16 02:48:05;;;;;;;14.63;10.52;;;14.70;99.90;;;;;;2096909;28;20039;-69
2023/06/16 02:49:06;;;;;;;12.27;10.02;;;14.70;99.90;;;;;;2092036;28;20016;-68
2023/06/16 02:50:08;;;;;;;12.30;10.38;;;14.70;99.90;;;;;;2089918;28;20059;-69
2023/06/16 02:51:09;;;;;;;13.88;10.40;;;14.70;99.90;;;;;;2095940;28;20024;-68
2023/06/16 02:52:13;;;;;;;13.85;10.25;;;14.70;99.90;;;;;;2088424;28;20483;-69
2023/06/16 02:53:15;;;;;;;14.80;10.15;;;14.70;99.90;;;;;;2096560;28;20516;-70
2023/06/16 02:54:16;;;;;;;12.38;10.05;;;14.70;99.90;;;;;;2092449;28;20516;-69
2023/06/16 02:55:17;;;;;;;12.30;9.90;;;14.70;99.90;;;;;;2087572;28;20051;-69
2023/06/16 02:56:23;;;;;;;12.23;9.30;;;14.70;99.90;;;;;;2098301;28;20033;-70
2023/06/16 02:57:24;;;;;;;10.82;9.50;;;14.70;99.90;;;;;;2091644;28;20028;-70
2023/06/16 02:58:25;;;;;;;11.95;10.02;;;14.70;99.90;;;;;;2089811;28;20032;-70
2023/06/16 02:59:26;;;;;;;13.95;9.77;;;14.70;99.90;;;;;;2098049;28;20051;-69
2023/06/16 03:00:26;;;;;;;11.20;9.93;;;14.70;99.90;;;;;;2101809;28;20324;-69
2023/06/16 03:01:46;;;;;;;12.23;9.90;;;14.70;99.90;;;;;;2098073;28;20522;-69
2023/06/16 03:02:52;;;;;;;13.00;9.93;;;14.70;99.90;;;;;;2097980;28;20044;-69
2023/06/16 03:03:53;;;;;;;11.98;9.73;;;14.60;99.90;;;;;;2097444;28;20372;-69
2023/06/16 03:05:06;;;;;;;14.05;9.77;;;14.60;99.90;;;;;;2091463;28;20575;-69
2023/06/16 03:06:07;;;;;;;11.48;9.88;;;14.60;99.90;;;;;;2093045;28;20232;-69
2023/06/16 03:07:09;;;;;;;11.80;9.98;;;14.60;99.90;;;;;;2095177;28;20430;-68
2023/06/16 03:08:16;;;;;;;11.80;9.65;;;14.60;99.90;;;;;;2088911;28;20115;-69
2023/06/16 03:09:16;;;;;;;12.57;10.20;;;14.50;99.90;;;;;;2084278;28;20040;-69
2023/06/16 03:10:17;;;;;;;13.70;10.88;;;14.60;99.90;;;;;;2088464;28;20033;-69
2023/06/16 03:11:38;;;;;;;;;;;14.50;99.90;;;;;;2092330;28;20072;-68
2023/06/16 03:12:39;;;;;;;12.70;9.60;;;14.50;99.90;;;;;;2095321;28;19957;-68
2023/06/16 03:13:42;;;;;;;12.52;9.98;;;14.50;99.90;;;;;;2100846;28;20552;-68
2023/06/16 03:14:43;;;;;;;11.25;9.57;;;14.50;99.90;;;;;;2092955;28;20103;-69
2023/06/16 03:15:50;;;;;;;12.90;10.18;;;14.50;99.90;;;;;;2093709;28;20032;-69
2023/06/16 03:16:51;;;;;;;14.50;9.77;;;14.60;99.90;;;;;;2096818;28;20162;-69
2023/06/16 03:17:52;;;;;;;11.95;9.65;;;14.60;99.90;;;;;;2102692;28;20023;-68
2023/06/16 03:18:54;;;;;;;11.90;9.85;;;14.60;99.90;;;;;;2098993;28;20035;-68
2023/06/16 03:19:55;;;;;;;12.20;10.00;;;14.60;99.90;;;;;;2095212;28;20478;-69
2023/06/16 03:21:05;;;;;;;10.63;9.27;;;14.60;99.90;;;;;;2090916;28;20376;-69
2023/06/16 03:22:13;;;;;;;12.13;10.25;;;14.60;99.90;;;;;;2098117;28;20029;-68
2023/06/16 03:23:17;;;;;;;12.75;10.10;;;14.70;99.90;;;;;;2097660;28;20036;-69
2023/06/16 03:24:18;;;;;;;12.32;9.93;;;14.70;99.90;;;;;;2097052;28;20033;-69
2023/06/16 03:25:21;;;;;;;14.10;9.95;;;14.70;99.90;;;;;;2101998;28;20032;-69
2023/06/16 03:26:22;;;;;;;12.93;10.20;;;14.80;99.90;;;;;;2096415;28;20415;-70
2023/06/16 03:27:46;;;;;;;11.73;9.18;;;14.80;99.90;;;;;;2092482;28;20046;-68
2023/06/16 03:28:50;;;;;;;15.13;10.20;;;14.80;99.90;;;;;;2098382;28;20063;-69
2023/06/16 03:29:51;;;;;;;12.25;9.90;;;14.80;99.90;;;;;;2090158;28;20017;-69
2023/06/16 03:30:52;;;;;;;11.55;9.63;;;14.80;99.90;;;;;;2092846;28;20187;-69
2023/06/16 03:32:05;;;;;;;9.82;8.73;;;14.80;99.90;;;;;;2086200;28;20108;-69
2023/06/16 03:33:07;;;;;;;12.73;9.75;;;14.90;99.90;;;;;;2079820;28;20480;-69
2023/06/16 03:34:10;;;;;;;11.95;9.68;;;14.90;99.90;;;;;;2076619;28;20603;-69
2023/06/16 03:35:12;;;;;;;11.70;9.60;;;14.90;99.90;;;;;;2093702;28;20427;-69
2023/06/16 03:36:12;;;;;;;11.52;9.48;;;14.90;99.90;;;;;;2091162;28;20387;-69
2023/06/16 03:37:16;;;;;;;12.63;10.00;;;14.90;99.90;;;;;;2089046;28;20056;-69
2023/06/16 03:38:20;;;;;;;11.00;9.63;;;15.00;99.90;;;;;;2087362;28;20388;-69
2023/06/16 03:39:21;;;;;;;12.25;9.40;;;15.00;99.90;;;;;;2094944;28;20101;-69
2023/06/16 03:40:21;;;;;;;12.63;10.00;;;15.00;99.90;;;;;;2098652;28;20071;-68
2023/06/16 03:41:23;;;;;;;11.80;9.70;;;15.00;99.90;;;;;;2094968;28;20127;-69
2023/06/16 03:42:23;;;;;;;12.05;9.57;;;15.00;99.90;;;;;;2097805;28;20035;-68
2023/06/16 03:43:25;;;;;;;11.20;9.57;;;15.00;99.90;;;;;;2100216;28;20033;-69
2023/06/16 03:44:27;;;;;;;13.48;9.82;;;15.00;99.90;;;;;;2088959;28;20393;-69
2023/06/16 03:45:28;;;;;;;13.32;9.70;;;15.10;99.90;;;;;;2088313;28;20081;-69
2023/06/16 03:46:31;;;;;;;10.60;9.50;;;15.00;99.90;;;;;;2100805;28;20402;-69
2023/06/16 03:47:33;;;;;;;13.55;9.98;;;15.10;99.90;;;;;;2100590;28;20034;-69
2023/06/16 03:48:34;;;;;;;12.93;9.95;;;15.10;99.90;;;;;;2100269;28;20318;-69
2023/06/16 03:49:37;;;;;;;12.10;9.57;;;15.10;99.90;;;;;;2090292;28;20498;-69
2023/06/16 03:50:37;;;;;;;11.52;9.32;;;15.10;99.90;;;;;;2098051;28;20066;-69
2023/06/16 03:51:39;;;;;;;11.27;9.57;;;15.10;99.90;;;;;;2098155;28;20036;-70
2023/06/16 03:52:41;;;;;;;12.18;9.70;;;15.10;99.90;;;;;;2089848;28;20082;-68
2023/06/16 03:53:43;;;;;;;15.75;10.20;;;15.10;99.90;;;;;;2098086;28;20128;-68
2023/06/16 03:54:43;;;;;;;12.32;9.60;;;15.10;99.90;;;;;;2097734;28;20024;-69
2023/06/16 03:55:44;;;;;;;12.88;9.50;;;15.10;99.90;;;;;;2102535;28;20089;-68
2023/06/16 03:56:45;;;;;;;12.02;9.80;;;15.10;99.90;;;;;;2091694;28;20020;-69
2023/06/16 03:57:47;;;;;;;12.55;10.10;;;15.10;99.90;;;;;;2100381;28;20031;-69
2023/06/16 03:58:50;;;;;;;12.07;9.70;;;15.10;99.90;;;;;;2100334;28;20023;-69
2023/06/16 03:59:51;;;;;;;12.13;10.10;;;15.10;99.90;;;;;;2092272;28;20027;-69
2023/06/16 04:00:51;;;;;;;12.73;9.68;;;15.10;99.90;;;;;;2083585;28;20546;-70
2023/06/16 04:01:53;;;;;;;11.85;9.35;;;15.10;99.90;;;;;;2089618;28;20028;-68
2023/06/16 04:02:58;;;;;;;11.88;9.60;;;15.10;99.90;;;;;;2090535;28;20574;-70
2023/06/16 04:04:01;;;;;;;13.95;10.45;;;15.20;99.90;;;;;;2094939;28;20028;-70
2023/06/16 04:05:02;;;;;;;14.73;10.40;;;15.20;99.90;;;;;;2094023;28;20023;-68
2023/06/16 04:06:03;;;;;;;11.27;9.57;;;15.20;99.90;;;;;;2097632;28;20107;-68
2023/06/16 04:07:07;;;;;;;11.80;9.90;;;15.20;99.90;;;;;;2088615;28;20156;-72
2023/06/16 04:08:08;;;;;;;11.45;9.63;;;15.20;99.90;;;;;;2078605;28;20234;-72
2023/06/16 04:09:11;;;;;;;14.20;10.45;;;15.30;99.90;;;;;;2092119;28;20483;-72
2023/06/16 04:10:12;;;;;;;12.48;11.00;;;15.30;99.90;;;;;;2092338;28;20508;-72
2023/06/16 04:11:15;;;;;;;13.90;10.35;;;15.30;99.90;;;;;;2100666;28;20051;-72
2023/06/16 04:12:16;;;;;;;13.02;10.80;;;15.30;99.90;;;;;;2101037;28;20019;-72
2023/06/16 04:13:16;;;;;;;14.98;10.57;;;15.40;99.90;;;;;;2098376;28;20565;-72
2023/06/16 04:14:20;;;;;;;12.73;10.48;;;15.40;99.90;;;;;;2097437;28;20059;-72
2023/06/16 04:15:21;;;;;;;16.23;11.20;;;15.50;99.90;;;;;;2089147;28;20024;-72
2023/06/16 04:16:23;;;;;;;13.50;10.57;;;15.60;99.90;;;;;;2092532;28;20064;-71
2023/06/16 04:17:25;;;;;;;11.30;10.13;;;15.60;99.90;;;;;;2099460;28;20383;-72
2023/06/16 04:18:25;;;;;;;15.77;10.35;;;15.70;99.90;;;;;;2092351;28;20333;-72
2023/06/16 04:19:26;;;;;;;11.60;10.07;;;15.80;99.90;;;;;;2100225;28;20027;-71
2023/06/16 04:20:27;;;;;;;10.60;9.48;;;15.90;99.90;;;;;;2096043;28;20031;-71
2023/06/16 04:21:28;;;;;;;12.02;9.85;;;16.10;99.90;;;;;;2104164;28;20057;-72
2023/06/16 04:22:29;;;;;;;12.50;9.65;;;16.30;99.90;;;;;;2092389;28;20503;-72
2023/06/16 04:23:30;;;;;;;11.27;9.52;;;16.30;99.90;;;;;;2082111;28;20025;-72
2023/06/16 04:24:31;;;;;;;12.15;9.20;;;16.40;99.90;;;;;;2099934;28;20031;-72
2023/06/16 04:25:31;;;;;;;12.02;9.93;;;16.50;99.90;;;;;;2094095;28;20035;-71
2023/06/16 04:26:33;;;;;;;14.50;9.57;;;16.50;99.90;;;;;;2096087;28;20098;-72
2023/06/16 04:27:38;;;;;;;11.25;9.60;;;16.50;99.90;;;;;;2097048;28;20035;-72
2023/06/16 04:28:42;;;;;;;10.90;8.75;;;16.50;99.90;;;;;;2082512;28;20033;-72
2023/06/16 04:29:46;;;;;;;12.23;9.40;;;16.50;99.90;;;;;;2085581;28;20123;-72
2023/06/16 04:30:50;;;;;;;11.75;9.27;;;16.60;99.90;;;;;;2092497;28;20036;-72
2023/06/16 04:31:51;;;;;;;14.00;9.52;;;16.70;99.90;;;;;;2092197;28;20111;-70
2023/06/16 04:32:54;;;;;;;14.13;9.20;;;16.90;99.90;;;;;;2088380;28;20038;-72
2023/06/16 04:33:57;;;;;;;11.02;9.45;;;17.30;99.90;;;;;;2094137;28;20032;-72
2023/06/16 04:34:58;;;;;;;11.90;9.30;;;17.60;99.90;;;;;;2089100;28;20079;-72
2023/06/16 04:35:59;;;;;;;11.48;9.07;;;18.10;99.90;;;;;;2097767;28;20085;-73
2023/06/16 04:37:00;;;;;;;10.57;9.05;;;18.50;99.90;;;;;;2101242;28;20149;-73
2023/06/16 04:38:06;;;;;;;12.77;8.82;;;18.90;99.90;;;;;;2100656;28;20025;-73
2023/06/16 04:39:08;;;;;;;14.63;9.15;;;19.30;99.90;;;;;;2096826;28;20529;-73
2023/06/16 04:40:10;;;;;;;12.95;8.75;;;19.60;99.90;;;;;;2099900;28;20020;-72
2023/06/16 04:41:11;;;;;;;12.70;9.23;;;19.70;99.90;;;;;;2090447;28;20024;-72
2023/06/16 04:42:12;;;;;;;12.57;9.30;;;19.80;99.90;;;;;;2101955;28;20565;-72
2023/06/16 04:43:14;;;;;;;16.52;9.48;;;19.70;99.90;;;;;;2100267;28;20498;-72
2023/06/16 04:44:15;;;;;;;14.52;9.23;;;19.50;99.90;;;;;;2092626;28;20032;-72
2023/06/16 04:45:16;;;;;;;11.85;9.27;;;19.40;99.90;;;;;;2091213;28;20024;-72
2023/06/16 04:46:20;;;;;;;10.70;8.68;;;19.20;99.90;;;;;;2087061;28;20032;-71
2023/06/16 04:47:21;;;;;;;11.20;9.00;;;19.00;99.90;;;;;;2083978;28;20029;-72
2023/06/16 04:48:22;;;;;;;14.10;9.27;;;18.80;99.90;;;;;;2089275;28;20056;-71
2023/06/16 04:49:23;;;;;;;11.82;8.23;;;18.70;99.90;;;;;;2100228;28;20035;-72
2023/06/16 04:50:23;;;;;;;8.80;7.85;;;18.80;99.90;;;;;;2099484;28;20120;-72
2023/06/16 04:51:26;;;;;;;14.88;8.18;;;19.10;99.90;;;;;;2090856;28;20056;-72
2023/06/16 04:52:27;;;;;;;10.18;8.02;;;19.30;99.90;;;;;;2091928;28;20102;-72
2023/06/16 04:53:28;;;;;;;12.77;8.30;;;19.60;99.90;;;;;;2092734;28;20102;-71
2023/06/16 04:54:29;;;;;;;10.90;8.38;;;20.10;99.90;;;;;;2092037;28;20028;-72
2023/06/16 04:55:30;;;;;;;9.52;7.78;;;20.40;99.90;;;;;;2084163;28;20262;-72
2023/06/16 04:56:30;;;;;;;12.93;7.90;;;20.70;99.90;;;;;;2093586;28;20515;-72
2023/06/16 04:57:32;;;;;;;11.10;7.68;;;21.00;99.90;;;;;;2090629;28;20032;-72
2023/06/16 04:58:32;;;;;;;13.35;8.00;;;21.20;99.90;;;;;;2090611;28;20021;-72
2023/06/16 04:59:33;;;;;;;9.23;7.85;;;21.40;99.90;;;;;;2094467;28;20033;-76
2023/06/16 05:00:33;;;;;;;11.63;7.65;;;21.70;99.90;;;;;;2090850;28;20044;-70
2023/06/16 05:01:34;;;;;;;13.30;7.80;;;21.90;99.90;;;;;;2084612;28;20024;-70
2023/06/16 05:02:35;;;;;;;11.65;7.88;;;22.00;98.80;;;;;;2092691;28;20632;-71
2023/06/16 05:03:36;;;;;;;9.73;7.32;;;22.10;97.70;;;;;;2086416;28;20675;-70
2023/06/16 05:04:38;;;;;;;9.73;7.35;;;22.20;96.60;;;;;;2095151;28;20067;-70
2023/06/16 05:05:38;;;;;;;10.48;7.68;;;22.40;95.70;;;;;;2088604;28;20032;-71
2023/06/16 05:06:39;;;;;;;13.38;7.78;;;22.40;94.70;;;;;;2093520;28;20040;-70
2023/06/16 05:07:39;;;;;;;14.43;8.50;;;22.50;94.30;;;;;;2098193;28;20334;-70
2023/06/16 05:08:40;;;;;;;11.77;7.95;;;22.50;93.80;;;;;;2096786;28;20527;-69
2023/06/16 05:09:41;;;;;;;9.80;7.63;;;22.60;93.50;;;;;;2099353;28;20051;-69
2023/06/16 05:10:44;;;;;;;10.43;7.60;;;22.70;93.00;;;;;;2100065;28;20035;-69
2023/06/16 05:11:45;;;;;;;15.10;7.68;;;22.70;91.90;;;;;;2085383;28;20115;-70
2023/06/16 05:12:45;;;;;;;9.68;7.60;;;22.80;91.10;;;;;;2092752;28;20395;-70
2023/06/16 05:13:46;;;;;;;11.40;7.00;;;22.90;90.70;;;;;;2105264;28;20052;-70
2023/06/16 05:14:47;;;;;;;9.23;7.35;;;23.00;90.50;;;;;;2102356;28;20267;-69
2023/06/16 05:15:48;;;;;;;9.35;7.65;;;23.10;90.30;;;;;;2098813;28;20426;-69
2023/06/16 05:16:49;;;;;;;12.27;7.78;;;23.10;89.50;;;;;;2095199;28;20035;-69
2023/06/16 05:17:51;;;;;;;11.43;7.50;;;23.20;88.50;;;;;;2090667;28;20032;-70
2023/06/16 05:18:52;;;;;;;9.50;7.45;;;23.20;87.20;;;;;;2101860;28;20410;-70
2023/06/16 05:19:53;;;;;;;14.82;7.35;;;23.30;86.40;;;;;;2097414;28;20752;-71
2023/06/16 05:20:54;;;;;;;9.57;7.60;;;23.30;85.80;;;;;;2101172;28;20486;-70